Jacksonville, NC (28540)

6:15 PM EST on February 08, 2016 (GMT -0500)
Jacksonville Northwoods Park | | Change Station
CLOSE
Current Station
Personal Weather Station
Location: Jacksonville, NC
Elevation: 21 ft
Nearby Weather Stations

Elev 21 ft 34.77 °N, 77.44 °W | Updated 0 second ago

Clear
Clear
48.7 °F
Feels Like 48 °F
N
3.6
Wind Variable Wind from South
Gusts 3.6 mph

Today
High -- | Low -- °F
--% Chance of Precip.
Yesterday
High -- | Low -- °F
Precip. -- in
Pressure 29.69 in
Visibility 10.0 miles
Clouds Few 12000 ft
Windchill 48 °F
Dew Point 35 °F
Humidity 59%
Rainfall 0.00 in
Snow Depth Not available.
7:02 AM 5:45 PM
New Moon, 0% visible
METAR KNCA 082256Z 20007KT 10SM FEW120 09/03 A2968 RMK AO2 SLP052 T00940033
Pressure 29.69 in
Visibility 10.0 miles
Clouds Few 12000 ft
Windchill 48 °F
Dew Point 35 °F
Humidity 59%
Rainfall 0.00 in
Snow Depth Not available.
7:02 AM 5:45 PM
New Moon, 0% visible
METAR KNCA 082256Z 20007KT 10SM FEW120 09/03 A2968 RMK AO2 SLP052 T00940033

10-Day Weather Forecast

Almanac

Astronomy

Feb. 08, 2016 Rise Set
Actual Time
Civil Twilight
Nautical Twilight
Astronomical Twilight
Moon
Length of Visible Light
Length of Day
Tomorrow will be .
, % of the Moon is Illuminated

Today's Extremes

State Highs State Lows

Community

WunderPhotos

Upload Photos

1,891,525 photos uploaded!

WunderBlog® & News

Nearby

Air Quality

  Air Quality AQ Index Pollutant
Not available.

Snow Depth

Station Depth Elevation

Earthquake Activity

City Distance Mag. Time & Date
Minimum magnitude displayed is 2.5.

Coastal Water Temperatures

Place Temperature

Stations

Nearby Weather Stations

Station Location Temp. Windchill Dew Point Humidity Wind Precip. Elev Updated Type
                   

Watches & Warnings

There are currently no watches in effect.